Time;durP1;ratioP1;P1;durP2;ratioP2;P2;SDS_P1;SDS_P2;PMS_P1;PMS_P2;Temp;Humidity;BMP_temperature;BMP_pressure;BME280_temperature;BME280_humidity;BME280_pressure;Samples;Min_cycle;Max_cycle;Signal;HPM_P1;HPM_P2
2021/01/31 00:00:28;;;;;;;25.43;14.43;;;;;;;-2.76;81.10;99162.69;104745;1103;83817;-71
2021/01/31 00:02:43;;;;;;;30.03;15.37;;;;;;;-2.77;81.00;99167.13;104677;1110;77628;-69
2021/01/31 00:04:51;;;;;;;29.67;14.50;;;;;;;-2.87;80.67;99168.08;104701;1110;61865;-70
2021/01/31 00:06:57;;;;;;;31.20;14.23;;;;;;;-2.84;81.22;99170.45;104698;1112;82533;-71
2021/01/31 00:09:01;;;;;;;24.10;13.20;;;;;;;-2.93;80.86;99169.45;104722;1110;70990;-70
2021/01/31 00:11:10;;;;;;;49.00;23.30;;;;;;;-2.99;80.28;99170.83;104683;1110;85251;-66
2021/01/31 00:13:16;;;;;;;32.77;18.60;;;;;;;-3.15;80.19;99175.77;104647;1111;78195;-65
2021/01/31 00:15:23;;;;;;;30.37;16.27;;;;;;;-3.26;80.41;99177.66;104677;1110;62053;-66
2021/01/31 00:17:27;;;;;;;21.67;13.77;;;;;;;-3.34;80.55;99175.69;104698;1107;82435;-65
2021/01/31 00:19:32;;;;;;;21.73;12.73;;;;;;;-3.36;80.43;99180.27;104708;1110;71986;-73
2021/01/31 00:21:37;;;;;;;21.47;13.60;;;;;;;-3.39;80.76;99177.05;104733;1110;85256;-73
2021/01/31 00:23:42;;;;;;;21.73;11.80;;;;;;;-3.46;80.00;99176.73;104659;1110;78229;-67
2021/01/31 00:25:47;;;;;;;31.70;16.50;;;;;;;-3.59;80.56;99186.66;104661;1109;62065;-66
2021/01/31 00:27:53;;;;;;;28.87;13.30;;;;;;;-3.66;80.56;99190.80;104699;1109;82494;-67
2021/01/31 00:29:57;;;;;;;26.10;13.23;;;;;;;-3.69;80.30;99189.26;104694;1109;71105;-74
2021/01/31 00:32:02;;;;;;;29.93;14.70;;;;;;;-3.70;80.42;99184.09;104697;1109;86145;-72
2021/01/31 00:34:12;;;;;;;39.57;18.27;;;;;;;-3.67;80.95;99195.23;104675;1109;77565;-68
2021/01/31 00:36:19;;;;;;;35.80;16.80;;;;;;;-3.62;80.49;99193.04;105150;1103;61777;-68
2021/01/31 00:38:27;;;;;;;33.93;16.60;;;;;;;-3.55;80.62;99195.16;105093;1103;81941;-73
2021/01/31 00:40:32;;;;;;;35.87;18.83;;;;;;;-3.50;80.47;99199.09;104686;1109;71478;-71
2021/01/31 00:42:37;;;;;;;29.13;13.93;;;;;;;-3.53;81.14;99193.23;104724;1109;84215;-73
2021/01/31 00:44:41;;;;;;;37.90;16.95;;;;;;;-3.58;80.62;99193.63;104675;1109;78898;-67
2021/01/31 00:46:46;;;;;;;23.93;11.80;;;;;;;-3.49;81.21;99198.13;104668;1109;61954;-68
2021/01/31 00:48:50;;;;;;;30.53;14.87;;;;;;;-3.46;80.68;99194.39;104679;1109;83402;-71
2021/01/31 00:50:55;;;;;;;29.10;14.33;;;;;;;-3.45;81.00;99202.17;104710;1109;71066;-70
2021/01/31 00:53:04;;;;;;;38.50;16.70;;;;;;;-3.36;80.85;99206.67;104691;1109;84789;-72
2021/01/31 00:55:14;;;;;;;38.50;17.77;;;;;;;-3.37;80.67;99202.35;104896;1103;78653;-67
2021/01/31 00:57:19;;;;;;;45.90;18.90;;;;;;;-3.41;80.95;99210.67;105093;1103;62004;-66
2021/01/31 00:59:23;;;;;;;34.57;15.30;;;;;;;-3.34;81.08;99199.45;104722;1109;82928;-66
2021/01/31 01:01:31;;;;;;;29.07;13.53;;;;;;;-3.32;81.11;99207.22;104686;1109;71725;-66
2021/01/31 01:03:35;;;;;;;51.63;20.67;;;;;;;-3.29;80.88;99214.89;105080;1103;85043;-67
2021/01/31 01:05:43;;;;;;;35.37;15.53;;;;;;;-3.24;80.67;99213.52;104662;1109;78714;-69
2021/01/31 01:07:48;;;;;;;32.37;16.10;;;;;;;-3.23;81.02;99211.73;104707;1109;61996;-70
2021/01/31 01:09:56;;;;;;;34.80;19.70;;;;;;;-3.27;80.69;99213.79;104697;1109;84243;-67
2021/01/31 01:12:05;;;;;;;27.67;14.60;;;;;;;-3.23;80.81;99215.21;104675;1109;71932;-67
2021/01/31 01:14:10;;;;;;;23.70;12.37;;;;;;;-3.24;80.44;99224.09;105081;1103;83982;-69
2021/01/31 01:16:17;;;;;;;17.13;10.00;;;;;;;-3.28;80.84;99221.85;104672;1109;77882;-70
2021/01/31 01:18:22;;;;;;;16.03;9.53;;;;;;;-3.34;80.55;99228.49;105067;1103;61855;-70
2021/01/31 01:20:28;;;;;;;15.67;8.93;;;;;;;-3.30;80.67;99226.44;104725;1109;83535;-70
2021/01/31 01:22:35;;;;;;;16.67;8.47;;;;;;;-3.28;80.26;99219.22;104714;1109;73293;-70
2021/01/31 01:24:40;;;;;;;15.53;7.93;;;;;;;-3.36;80.38;99227.80;105034;1106;84249;-68
2021/01/31 01:26:47;;;;;;;18.77;8.77;;;;;;;-3.37;80.21;99231.39;104692;1109;77884;-68
2021/01/31 01:28:51;;;;;;;16.60;7.25;;;;;;;-3.36;80.56;99235.72;104734;1109;61736;-69
2021/01/31 01:30:58;;;;;;;15.17;7.63;;;;;;;-3.25;80.41;99227.72;104711;1109;82770;-68
2021/01/31 01:33:03;;;;;;;13.77;7.40;;;;;;;-3.22;80.15;99232.73;104687;1110;71538;-68
2021/01/31 01:35:11;;;;;;;12.30;7.77;;;;;;;-3.20;80.51;99233.44;104701;1110;84987;-70
2021/01/31 01:37:18;;;;;;;18.37;8.20;;;;;;;-3.17;80.81;99233.17;104853;1103;79056;-67
2021/01/31 01:39:28;;;;;;;13.23;7.30;;;;;;;-3.16;80.11;99236.66;104706;1109;62017;-68
2021/01/31 01:41:39;;;;;;;15.40;8.30;;;;;;;-3.22;80.40;99242.46;104684;1109;82737;-68
2021/01/31 01:43:44;;;;;;;12.13;7.67;;;;;;;-3.19;80.59;99239.56;104729;1109;71638;-68
2021/01/31 01:46:26;;;;;;;13.03;8.10;;;;;;;-3.27;80.29;99239.38;104719;1109;84395;-68
2021/01/31 01:48:32;;;;;;;16.20;8.40;;;;;;;-3.29;80.38;99244.77;105069;1103;78628;-68
2021/01/31 01:50:41;;;;;;;15.47;7.80;;;;;;;-3.26;80.35;99243.67;104726;1109;61702;-70
2021/01/31 01:52:46;;;;;;;18.67;8.43;;;;;;;-3.31;80.29;99241.44;104858;1103;83460;-66
2021/01/31 01:54:58;;;;;;;14.77;7.93;;;;;;;-3.33;80.20;99243.38;104672;1110;72405;-68
2021/01/31 01:57:08;;;;;;;14.30;8.33;;;;;;;-3.41;79.63;99232.63;104838;1103;85229;-66
2021/01/31 01:59:14;;;;;;;16.33;8.90;;;;;;;-3.48;79.89;99247.30;104808;1103;78479;-69
2021/01/31 02:01:23;;;;;;;16.70;8.73;;;;;;;-3.52;80.12;99237.98;104841;1103;61868;-68
2021/01/31 02:03:32;;;;;;;16.23;8.97;;;;;;;-3.68;79.88;99235.77;104842;1106;81754;-69
2021/01/31 02:05:39;;;;;;;18.23;10.07;;;;;;;-3.71;79.51;99245.77;104803;1103;71226;-70
2021/01/31 02:07:45;;;;;;;20.37;9.10;;;;;;;-3.78;80.04;99242.78;104684;1109;84841;-69
2021/01/31 02:09:51;;;;;;;20.57;10.93;;;;;;;-3.90;79.92;99242.98;104681;1109;77255;-70
2021/01/31 02:11:59;;;;;;;21.20;10.27;;;;;;;-3.97;79.39;99249.70;104702;1109;61986;-70
2021/01/31 02:14:10;;;;;;;20.17;10.27;;;;;;;-4.05;79.74;99252.98;104864;1103;82400;-69
2021/01/31 02:16:26;;;;;;;19.73;9.73;;;;;;;-4.11;79.62;99263.18;104962;1103;72453;-69
2021/01/31 02:18:40;;;;;;;21.23;11.07;;;;;;;-4.15;80.03;99261.77;104918;1103;85043;-69
2021/01/31 02:21:07;;;;;;;19.93;11.17;;;;;;;-4.17;79.93;99260.08;104862;1103;79314;-69
2021/01/31 02:24:01;;;;;;;24.00;10.53;;;;;;;-4.10;79.91;99257.80;104801;1103;61723;-71
2021/01/31 02:26:09;;;;;;;22.10;10.67;;;;;;;-4.20;79.82;99260.33;104729;1109;83209;-71
2021/01/31 02:28:46;;;;;;;25.13;11.97;;;;;;;-4.12;79.76;99250.98;105076;1103;70897;-70
2021/01/31 02:31:13;;;;;;;21.13;10.63;;;;;;;-4.03;80.00;99258.11;104956;1103;84697;-70
2021/01/31 02:33:45;;;;;;;22.10;11.50;;;;;;;-4.03;79.62;99255.48;104855;1103;77281;-69
2021/01/31 02:35:57;;;;;;;20.40;11.63;;;;;;;-4.04;80.28;99261.73;104709;1109;61949;-69
2021/01/31 02:38:13;;;;;;;21.77;11.97;;;;;;;-4.01;80.07;99269.40;104746;1103;82684;-71
2021/01/31 02:40:25;;;;;;;18.33;10.90;;;;;;;-4.10;79.95;99270.14;104701;1109;72020;-71
2021/01/31 02:42:40;;;;;;;21.13;10.33;;;;;;;-4.13;79.89;99265.11;105042;1103;84302;-70
2021/01/31 02:44:57;;;;;;;21.23;11.07;;;;;;;-4.22;79.51;99275.44;104992;1103;77740;-71
2021/01/31 02:47:03;;;;;;;24.13;12.40;;;;;;;-4.28;80.10;99273.30;105071;1103;61705;-71
2021/01/31 02:49:16;;;;;;;22.40;11.00;;;;;;;-4.29;80.30;99276.91;104895;1103;82768;-71
2021/01/31 02:51:26;;;;;;;25.07;12.23;;;;;;;-4.30;79.49;99269.95;104882;1103;71844;-71
2021/01/31 02:53:37;;;;;;;25.73;11.43;;;;;;;-4.32;79.52;99271.04;104867;1103;83951;-69
2021/01/31 02:55:46;;;;;;;23.70;11.50;;;;;;;-4.38;80.12;99276.80;104732;1106;77003;-71
2021/01/31 02:58:03;;;;;;;21.53;10.63;;;;;;;-4.50;80.13;99278.61;104829;1106;61775;-70
2021/01/31 03:00:16;;;;;;;20.23;11.17;;;;;;;-4.49;79.99;99285.56;104825;1103;82972;-71
2021/01/31 03:02:26;;;;;;;22.77;11.97;;;;;;;-4.49;80.18;99282.93;104702;1113;70749;-70
2021/01/31 03:04:37;;;;;;;21.37;10.97;;;;;;;-4.52;79.61;99280.54;104787;1103;85328;-70
2021/01/31 03:06:49;;;;;;;23.57;11.47;;;;;;;-4.63;79.89;99283.19;104756;1110;78055;-71
2021/01/31 03:09:00;;;;;;;20.33;11.27;;;;;;;-4.70;79.64;99279.38;104771;1103;61965;-69
2021/01/31 03:11:11;;;;;;;22.57;11.53;;;;;;;-4.74;79.85;99279.71;104779;1103;82400;-68
2021/01/31 03:13:25;;;;;;;19.33;10.87;;;;;;;-4.88;79.30;99275.53;104765;1106;71891;-72
2021/01/31 03:15:34;;;;;;;;;;;;;;;-5.03;78.86;99285.48;104710;1109;84233;-72
2021/01/31 03:17:44;;;;;;;23.23;10.87;;;;;;;-5.18;79.05;99281.38;104701;1103;78706;-72
2021/01/31 03:19:54;;;;;;;20.83;10.67;;;;;;;-5.33;79.15;99281.73;104719;1106;61932;-72
2021/01/31 03:22:07;;;;;;;20.40;10.57;;;;;;;-5.46;79.32;99284.44;104706;1110;83399;-74
2021/01/31 03:24:17;;;;;;;17.90;9.63;;;;;;;-5.58;79.46;99288.01;104665;1109;70742;-74
2021/01/31 03:26:31;;;;;;;20.40;9.97;;;;;;;-5.67;79.39;99293.95;105012;1103;84593;-73
2021/01/31 03:28:35;;;;;;;19.07;10.40;;;;;;;-5.76;78.93;99292.84;105142;1103;77398;-74
2021/01/31 03:30:43;;;;;;;21.77;10.53;;;;;;;-5.86;79.43;99289.26;104689;1109;61898;-73
2021/01/31 03:32:55;;;;;;;20.07;11.20;;;;;;;-5.95;79.43;99286.45;104721;1109;84014;-69
2021/01/31 03:35:05;;;;;;;19.07;10.23;;;;;;;-6.01;79.26;99285.96;104953;1107;71260;-69
2021/01/31 03:37:15;;;;;;;18.60;10.30;;;;;;;-6.09;79.35;99287.47;105090;1103;85272;-66
2021/01/31 03:39:25;;;;;;;19.13;9.90;;;;;;;-6.19;79.23;99295.20;105048;1106;78220;-71
2021/01/31 03:41:30;;;;;;;20.83;10.03;;;;;;;-6.31;79.58;99292.61;104835;1103;61937;-68
2021/01/31 03:43:35;;;;;;;20.90;10.10;;;;;;;-6.35;79.37;99296.42;104699;1110;81834;-68
2021/01/31 03:45:47;;;;;;;20.40;9.65;;;;;;;-6.41;79.29;99300.33;104682;1112;70799;-68
2021/01/31 03:48:01;;;;;;;20.13;9.10;;;;;;;-6.50;79.33;99303.59;104833;1103;84930;-71
2021/01/31 03:50:09;;;;;;;14.57;8.77;;;;;;;-6.49;79.21;99301.81;104774;1103;78142;-71
2021/01/31 03:52:13;;;;;;;16.87;8.93;;;;;;;-6.56;79.48;99298.78;105017;1103;61796;-68
2021/01/31 03:54:19;;;;;;;16.90;9.03;;;;;;;-6.64;79.65;99301.95;104700;1109;83035;-71
2021/01/31 03:56:32;;;;;;;13.60;8.07;;;;;;;-6.66;79.37;99303.02;104908;1103;71846;-72
2021/01/31 03:58:40;;;;;;;16.50;9.20;;;;;;;-6.67;79.59;99302.17;104957;1106;83440;-73
2021/01/31 04:00:51;;;;;;;15.07;8.20;;;;;;;-6.67;79.85;99302.17;104929;1103;78017;-73
2021/01/31 04:03:01;;;;;;;15.80;7.80;;;;;;;-6.72;79.65;99293.78;104933;1103;61931;-72
2021/01/31 04:05:10;;;;;;;15.77;8.90;;;;;;;-6.82;79.62;99303.27;104909;1106;82427;-73
2021/01/31 04:07:21;;;;;;;19.67;9.53;;;;;;;-6.84;79.70;99306.95;104910;1103;70887;-73
2021/01/31 04:09:27;;;;;;;14.93;8.67;;;;;;;-6.87;79.98;99309.78;104691;1109;84310;-73
2021/01/31 04:11:36;;;;;;;15.77;8.60;;;;;;;-6.91;80.22;99313.55;104851;1103;78382;-73
2021/01/31 04:13:41;;;;;;;18.63;9.47;;;;;;;-6.88;80.04;99311.56;104894;1103;61734;-74
2021/01/31 04:15:49;;;;;;;19.37;8.90;;;;;;;-6.84;80.18;99309.57;104681;1112;83711;-73
2021/01/31 04:17:53;;;;;;;13.40;8.40;;;;;;;-6.86;79.96;99317.53;104796;1103;70794;-73
2021/01/31 04:19:58;;;;;;;14.53;8.00;;;;;;;-6.87;80.08;99320.28;104723;1110;85002;-73
2021/01/31 04:22:05;;;;;;;15.63;8.27;;;;;;;-6.87;80.09;99323.75;104691;1110;77473;-72
2021/01/31 04:24:15;;;;;;;16.63;8.57;;;;;;;-6.86;80.35;99332.44;104740;1103;61904;-74
2021/01/31 04:26:19;;;;;;;16.60;8.33;;;;;;;-6.80;79.96;99338.11;104693;1110;82234;-73
2021/01/31 04:28:26;;;;;;;19.10;9.27;;;;;;;-6.66;80.22;99331.90;104715;1110;71710;-70
2021/01/31 04:30:30;;;;;;;17.17;9.30;;;;;;;-6.59;80.88;99328.72;104841;1103;84995;-75
2021/01/31 04:32:35;;;;;;;19.77;10.10;;;;;;;-6.50;80.55;99336.90;104662;1109;78000;-75
2021/01/31 04:34:39;;;;;;;17.40;9.03;;;;;;;-6.44;80.64;99332.06;104670;1109;61815;-75
2021/01/31 04:36:44;;;;;;;20.70;9.57;;;;;;;-6.38;80.51;99336.04;104701;1109;84007;-74
2021/01/31 04:38:49;;;;;;;19.67;9.47;;;;;;;-6.35;80.69;99346.34;104700;1109;71800;-74
2021/01/31 04:41:00;;;;;;;20.97;9.97;;;;;;;-6.35;80.75;99343.70;104697;1109;84462;-74
2021/01/31 04:43:12;;;;;;;20.97;10.20;;;;;;;-6.28;80.53;99342.31;104832;1103;78614;-74
2021/01/31 04:45:17;;;;;;;17.83;9.80;;;;;;;-6.20;80.64;99350.48;104811;1103;61866;-72
2021/01/31 04:47:29;;;;;;;21.27;10.47;;;;;;;-6.10;80.71;99348.89;104669;1109;83189;-74
2021/01/31 04:49:57;;;;;;;22.13;9.93;;;;;;;-5.97;80.70;99354.93;104784;1103;72193;-74
2021/01/31 04:52:25;;;;;;;24.57;10.23;;;;;;;-5.79;80.01;99353.55;104716;1109;84448;-73
2021/01/31 04:54:47;;;;;;;20.77;10.17;;;;;;;-5.75;80.10;99362.91;105052;1103;78715;-73
2021/01/31 04:57:08;;;;;;;21.70;9.77;;;;;;;-5.79;80.39;99355.33;105025;1103;62003;-71
2021/01/31 04:59:28;;;;;;;20.70;9.10;;;;;;;-5.70;79.95;99352.88;104946;1103;83022;-71
2021/01/31 05:01:34;;;;;;;18.13;9.40;;;;;;;-5.63;80.02;99353.28;104935;1103;72224;-71
2021/01/31 05:03:51;;;;;;;20.47;9.83;;;;;;;-5.61;79.77;99359.25;104705;1109;83404;-71
2021/01/31 05:06:05;;;;;;;19.23;9.83;;;;;;;-5.53;79.80;99349.84;104689;1109;77696;-70
2021/01/31 05:08:18;;;;;;;20.30;9.83;;;;;;;-5.55;79.75;99356.17;104860;1103;61923;-70
2021/01/31 05:10:27;;;;;;;17.00;8.33;;;;;;;-5.54;80.04;99358.68;104763;1103;81693;-70
2021/01/31 05:12:40;;;;;;;23.43;10.37;;;;;;;-5.48;80.02;99360.02;104781;1106;72352;-71
2021/01/31 05:15:18;;;;;;;25.37;9.40;;;;;;;-5.45;79.84;99354.53;104717;1106;85326;-71
2021/01/31 05:17:23;;;;;;;20.83;9.40;;;;;;;-5.42;79.40;99370.09;105067;1103;78464;-70
2021/01/31 05:19:31;;;;;;;22.50;10.37;;;;;;;-5.40;79.76;99360.28;104691;1109;61764;-72
2021/01/31 05:21:36;;;;;;;21.63;9.40;;;;;;;-5.42;79.36;99363.04;105120;1103;81832;-73
2021/01/31 05:23:47;;;;;;;20.13;9.37;;;;;;;-5.48;79.17;99363.49;104682;1109;72512;-71
2021/01/31 05:25:51;;;;;;;22.47;10.10;;;;;;;-5.60;78.86;99363.55;104751;1103;84546;-71
2021/01/31 05:27:58;;;;;;;17.60;9.40;;;;;;;-5.62;79.21;99371.56;104662;1109;78717;-71
2021/01/31 05:30:05;;;;;;;20.60;9.60;;;;;;;-5.66;78.98;99374.55;105102;1106;62363;-71
2021/01/31 05:32:16;;;;;;;21.57;9.50;;;;;;;-5.66;79.25;99374.55;105082;1103;83285;-71
2021/01/31 05:34:38;;;;;;;24.30;10.33;;;;;;;-5.72;79.21;99370.57;104856;1103;71389;-73
2021/01/31 05:37:01;;;;;;;21.93;9.47;;;;;;;-5.84;79.44;99370.61;104655;1109;84562;-73
2021/01/31 05:39:08;;;;;;;18.73;9.98;;;;;;;-5.94;79.09;99362.59;104661;1109;77869;-70
2021/01/31 05:41:44;;;;;;;23.10;10.05;;;;;;;-5.88;79.07;99363.95;104924;1103;61912;-71
2021/01/31 05:43:57;;;;;;;22.13;9.27;;;;;;;-5.76;79.17;99374.36;104753;1103;81647;-71
2021/01/31 05:46:17;;;;;;;21.47;10.70;;;;;;;-5.63;79.60;99369.06;104683;1109;70714;-71
2021/01/31 05:48:37;;;;;;;18.27;8.57;;;;;;;-5.63;79.52;99364.61;104714;1110;83297;-73
2021/01/31 05:50:44;;;;;;;18.67;8.90;;;;;;;-5.56;79.11;99370.27;104919;1103;78805;-73
2021/01/31 05:52:48;;;;;;;18.40;8.93;;;;;;;-5.52;79.24;99363.84;104913;1103;61930;-72
2021/01/31 05:54:55;;;;;;;22.43;8.90;;;;;;;-5.56;79.46;99373.75;104669;1112;82844;-71
2021/01/31 05:56:59;;;;;;;18.80;9.80;;;;;;;-5.49;79.32;99382.84;104682;1109;71585;-72
2021/01/31 05:59:13;;;;;;;20.53;9.23;;;;;;;-5.45;79.40;99373.80;104693;1109;85476;-72
2021/01/31 06:01:18;;;;;;;20.30;9.53;;;;;;;-5.48;79.10;99392.43;105118;1103;78560;-72
2021/01/31 06:03:22;;;;;;;20.67;9.23;;;;;;;-5.44;79.42;99407.02;104703;1109;61858;-72
2021/01/31 06:05:28;;;;;;;20.10;10.27;;;;;;;-5.43;79.08;99403.45;104702;1109;81638;-71
2021/01/31 06:07:34;;;;;;;20.13;9.23;;;;;;;-5.38;79.08;99414.47;104894;1103;72602;-72
2021/01/31 06:09:46;;;;;;;19.55;9.25;;;;;;;-5.34;79.27;99411.61;104715;1109;85281;-72
2021/01/31 06:11:51;;;;;;;17.37;9.10;;;;;;;-5.30;78.97;99411.27;105086;1103;77768;-71
2021/01/31 06:14:10;;;;;;;19.47;8.57;;;;;;;-5.25;79.12;99410.94;104686;1109;61662;-73
2021/01/31 06:16:21;;;;;;;17.93;9.10;;;;;;;-5.36;79.62;99409.92;105058;1103;83263;-73
2021/01/31 06:18:30;;;;;;;20.40;9.47;;;;;;;-5.33;79.63;99421.20;104936;1103;71488;-72
2021/01/31 06:20:40;;;;;;;20.70;9.57;;;;;;;-5.19;79.06;99421.83;104899;1102;84929;-72
2021/01/31 06:22:48;;;;;;;18.83;9.03;;;;;;;-5.12;79.16;99424.86;104967;1103;78091;-73
2021/01/31 06:24:54;;;;;;;18.13;9.57;;;;;;;-5.11;79.40;99419.46;104976;1103;61917;-72
2021/01/31 06:27:01;;;;;;;23.23;9.90;;;;;;;-5.12;78.97;99416.95;104949;1103;81903;-72
2021/01/31 06:29:11;;;;;;;21.30;10.23;;;;;;;-5.29;78.59;99405.06;104856;1103;73318;-70
2021/01/31 06:31:45;;;;;;;17.25;8.85;;;;;;;-5.37;78.64;99397.73;104821;1103;84973;-70
2021/01/31 06:33:49;;;;;;;18.28;8.75;;;;;;;-5.53;78.75;99402.46;104737;1106;77435;-71
2021/01/31 06:36:16;;;;;;;20.10;8.93;;;;;;;-5.63;78.81;99396.17;104675;1110;61991;-70
2021/01/31 06:38:33;;;;;;;21.13;9.17;;;;;;;-5.57;78.53;99395.73;104669;1109;83552;-71
2021/01/31 06:40:58;;;;;;;21.00;10.33;;;;;;;-5.59;78.80;99392.38;104721;1109;73534;-71
2021/01/31 06:43:17;;;;;;;19.83;9.43;;;;;;;-5.63;78.47;99398.80;104690;1109;84894;-73
2021/01/31 06:45:35;;;;;;;19.87;9.03;;;;;;;-5.68;78.58;99407.98;104653;1112;78181;-74
2021/01/31 06:48:33;;;;;;;23.77;9.83;;;;;;;-5.74;78.86;99400.56;105059;1103;61888;-70
2021/01/31 06:50:57;;;;;;;18.70;8.27;;;;;;;-5.73;78.86;99410.11;104814;1106;82149;-70
2021/01/31 06:53:14;;;;;;;;;;;;;;;-5.73;79.04;99421.48;104776;1103;72543;-71
2021/01/31 06:55:45;;;;;;;19.53;8.20;;;;;;;-5.78;78.87;99420.98;104702;1109;84545;-65
2021/01/31 06:58:27;;;;;;;19.87;9.17;;;;;;;-5.77;79.00;99435.81;104881;1103;78372;-69
2021/01/31 07:01:10;;;;;;;20.90;9.27;;;;;;;-5.72;78.75;99433.69;104841;1109;61977;-69
2021/01/31 07:04:08;;;;;;;19.30;8.63;;;;;;;-5.64;79.16;99441.02;104810;1109;82507;-67
2021/01/31 07:07:17;;;;;;;18.97;8.57;;;;;;;-5.46;79.02;99448.41;104372;1112;71613;-68
2021/01/31 07:09:40;;;;;;;17.13;8.67;;;;;;;-5.18;79.39;99454.27;104763;1103;83824;-68
2021/01/31 07:11:55;;;;;;;20.93;8.73;;;;;;;-4.93;79.28;99460.23;104763;1103;77315;-68
2021/01/31 07:14:40;;;;;;;22.10;10.43;;;;;;;-4.82;79.25;99475.22;104746;1108;61826;-68
2021/01/31 07:16:53;;;;;;;23.37;10.13;;;;;;;-4.47;78.68;99477.81;105084;1103;81617;-68
2021/01/31 07:19:04;;;;;;;24.10;10.27;;;;;;;-3.57;78.62;99467.11;105056;1103;73179;-71
2021/01/31 07:21:18;;;;;;;22.27;10.40;;;;;;;-2.63;78.51;99464.58;105062;1103;84665;-70
2021/01/31 07:23:31;;;;;;;22.28;11.10;;;;;;;-2.14;78.54;99463.92;104953;1103;78546;-68
2021/01/31 07:25:40;;;;;;;22.95;10.28;;;;;;;-1.55;78.15;99461.33;104838;1103;61759;-68
2021/01/31 07:27:53;;;;;;;22.70;11.50;;;;;;;-1.11;78.39;99474.09;104935;1103;81350;-70
2021/01/31 07:30:10;;;;;;;19.73;10.33;;;;;;;-1.10;77.59;99473.13;104908;1103;72257;-70
2021/01/31 07:32:23;;;;;;;19.90;10.80;;;;;;;-1.16;76.69;99476.33;104899;1109;83426;-70
2021/01/31 07:34:39;;;;;;;21.90;9.67;;;;;;;-0.81;76.20;99478.42;104726;1110;77604;-71
2021/01/31 07:37:16;;;;;;;22.27;10.77;;;;;;;-0.75;75.81;99486.67;104701;1103;61751;-70
2021/01/31 07:39:27;;;;;;;17.83;9.90;;;;;;;-0.79;75.41;99479.11;104682;1110;82167;-70
2021/01/31 07:41:33;;;;;;;19.03;10.20;;;;;;;-0.61;74.75;99478.29;104924;1103;70842;-70
2021/01/31 07:43:43;;;;;;;19.67;10.77;;;;;;;-0.58;74.79;99476.33;104847;1103;84964;-70
2021/01/31 07:45:49;;;;;;;19.60;9.87;;;;;;;-0.48;74.70;99479.79;104699;1110;79073;-70
2021/01/31 07:48:34;;;;;;;24.37;12.77;;;;;;;-0.04;74.48;99479.98;105052;1103;61839;-67
2021/01/31 07:50:41;;;;;;;19.50;11.35;;;;;;;1.33;74.08;99470.05;104964;1103;83043;-67
2021/01/31 07:52:53;;;;;;;21.37;11.17;;;;;;;2.07;73.54;99462.42;104982;1103;71359;-68
2021/01/31 07:55:12;;;;;;;16.97;10.27;;;;;;;3.21;72.66;99466.30;104910;1103;85102;-67
2021/01/31 07:57:35;;;;;;;19.63;10.37;;;;;;;3.78;71.35;99459.95;104689;1112;79054;-72
2021/01/31 07:59:40;;;;;;;18.00;10.95;;;;;;;4.59;70.80;99455.19;104753;1106;61882;-73
2021/01/31 08:01:49;;;;;;;21.40;12.00;;;;;;;5.28;69.87;99458.78;104681;1110;82210;-75
2021/01/31 08:03:53;;;;;;;20.10;11.77;;;;;;;5.68;68.80;99460.32;104736;1110;70784;-70
2021/01/31 08:06:04;;;;;;;19.07;11.27;;;;;;;6.24;67.49;99457.09;104692;1109;84799;-69
2021/01/31 08:08:09;;;;;;;19.80;11.53;;;;;;;6.49;66.81;99461.16;104723;1106;78112;-75
2021/01/31 08:10:46;;;;;;;16.20;11.27;;;;;;;6.88;66.11;99463.52;104753;1106;61888;-73
2021/01/31 08:13:01;;;;;;;18.07;11.50;;;;;;;7.48;64.59;99467.66;105077;1103;82275;-77
2021/01/31 08:15:09;;;;;;;;;;;;;;;7.66;63.41;99468.05;104941;1103;72078;-75
2021/01/31 08:18:16;;;;;;;16.93;11.93;;;;;;;7.68;62.67;99474.90;105118;1103;83878;-76
2021/01/31 08:20:39;;;;;;;18.77;12.10;;;;;;;8.24;62.12;99469.55;105565;1103;77514;-70
2021/01/31 08:22:44;;;;;;;18.93;12.60;;;;;;;8.26;60.71;99478.24;104807;1103;61688;-72
2021/01/31 08:25:21;;;;;;;19.13;12.43;;;;;;;8.51;60.73;99481.33;104670;1109;83006;-72
2021/01/31 08:27:51;;;;;;;18.73;12.77;;;;;;;8.73;60.08;99475.66;104933;1103;71952;-74
2021/01/31 08:30:17;;;;;;;18.23;13.10;;;;;;;8.92;59.03;99484.02;105036;1103;85217;-73
2021/01/31 08:32:22;;;;;;;20.57;13.60;;;;;;;8.96;58.60;99487.95;104975;1103;78594;-73
2021/01/31 08:34:26;;;;;;;19.77;12.77;;;;;;;9.24;58.24;99483.29;104681;1109;61848;-76
2021/01/31 08:36:37;;;;;;;18.77;13.03;;;;;;;8.88;57.61;99481.72;104701;1109;82484;-73
2021/01/31 08:38:49;;;;;;;18.00;12.67;;;;;;;8.09;56.53;99491.16;105001;1103;71119;-75
2021/01/31 08:41:32;;;;;;;18.67;12.57;;;;;;;6.21;56.98;99499.52;104953;1103;83466;-76
2021/01/31 08:43:42;;;;;;;19.13;12.77;;;;;;;4.68;57.56;99504.13;104775;1106;77948;-71
2021/01/31 08:45:48;;;;;;;18.23;12.50;;;;;;;4.00;58.46;99514.52;104760;1104;61858;-73
2021/01/31 08:47:55;;;;;;;19.50;12.60;;;;;;;3.98;59.33;99520.01;104687;1109;81515;-68
2021/01/31 08:50:02;;;;;;;19.13;12.73;;;;;;;4.92;59.61;99509.36;104693;1109;71313;-70
2021/01/31 08:52:12;;;;;;;18.10;12.00;;;;;;;5.96;59.00;99512.33;104765;1103;84884;-68
2021/01/31 08:54:20;;;;;;;21.80;13.77;;;;;;;6.60;58.35;99513.52;104702;1103;78684;-70
2021/01/31 08:56:30;;;;;;;19.87;13.17;;;;;;;7.24;57.46;99503.80;104752;1109;61952;-69
2021/01/31 08:58:34;;;;;;;19.93;13.10;;;;;;;7.69;57.58;99518.75;104718;1109;82497;-74
2021/01/31 09:00:39;;;;;;;21.07;13.63;;;;;;;7.99;57.12;99525.64;104699;1110;72349;-73
2021/01/31 09:02:46;;;;;;;21.83;14.23;;;;;;;8.40;56.28;99517.70;104701;1110;84444;-69
2021/01/31 09:04:54;;;;;;;20.63;14.40;;;;;;;8.57;55.97;99523.61;104675;1109;78412;-69
2021/01/31 09:07:03;;;;;;;22.80;14.47;;;;;;;8.92;54.81;99522.56;104719;1109;61954;-68
2021/01/31 09:09:19;;;;;;;22.10;14.37;;;;;;;8.95;55.07;99515.94;104697;1110;82968;-65
2021/01/31 09:11:24;;;;;;;21.33;15.10;;;;;;;9.11;54.66;99526.36;104891;1103;71847;-67
2021/01/31 09:13:32;;;;;;;24.10;15.87;;;;;;;8.97;54.77;99530.02;104717;1110;83991;-67
2021/01/31 09:15:37;;;;;;;22.27;14.70;;;;;;;9.05;53.92;99527.16;104685;1109;77890;-68
2021/01/31 09:17:42;;;;;;;19.67;15.07;;;;;;;9.18;53.55;99527.20;104706;1109;61739;-68
2021/01/31 09:19:47;;;;;;;21.37;15.87;;;;;;;8.83;52.65;99526.44;104694;1109;83357;-62
2021/01/31 09:21:56;;;;;;;21.70;15.70;;;;;;;9.09;53.72;99529.23;104690;1110;71629;-62
2021/01/31 09:24:05;;;;;;;20.47;14.70;;;;;;;9.40;53.48;99521.48;104948;1106;84018;-67
2021/01/31 09:26:09;;;;;;;21.20;14.27;;;;;;;9.41;51.96;99517.77;105115;1103;78498;-65
2021/01/31 09:28:22;;;;;;;19.50;15.00;;;;;;;9.59;52.47;99532.51;104721;1109;62037;-66
2021/01/31 09:30:32;;;;;;;20.87;14.33;;;;;;;9.30;51.91;99531.83;105100;1106;82085;-65
2021/01/31 09:32:41;;;;;;;19.33;14.07;;;;;;;9.20;52.55;99533.25;105096;1103;71870;-67
2021/01/31 09:34:46;;;;;;;20.03;14.57;;;;;;;9.65;52.04;99532.53;104814;1103;83824;-70
2021/01/31 09:37:06;;;;;;;20.23;13.70;;;;;;;9.53;51.57;99538.74;104694;1109;78077;-66
2021/01/31 09:39:12;;;;;;;21.50;14.53;;;;;;;9.22;51.68;99541.95;104982;1103;61886;-67
2021/01/31 09:41:19;;;;;;;18.57;14.23;;;;;;;9.09;51.39;99541.91;104685;1109;82058;-65
2021/01/31 09:43:30;;;;;;;19.03;13.70;;;;;;;8.84;51.38;99537.00;105013;1103;71990;-65
2021/01/31 09:45:42;;;;;;;19.30;13.90;;;;;;;8.67;51.07;99545.61;104810;1103;84294;-71
2021/01/31 09:47:48;;;;;;;19.63;14.57;;;;;;;9.00;51.09;99545.80;104988;1103;78393;-59
2021/01/31 09:50:03;;;;;;;19.90;14.33;;;;;;;9.32;51.30;99540.53;104948;1103;61995;-73
2021/01/31 09:52:12;;;;;;;19.47;13.53;;;;;;;9.01;50.61;99547.47;104731;1109;82592;-73
2021/01/31 09:54:22;;;;;;;19.03;14.40;;;;;;;8.69;50.85;99548.93;104910;1108;71202;-68
2021/01/31 09:56:40;;;;;;;23.93;14.23;;;;;;;8.73;50.74;99542.97;104697;1109;85266;-67
2021/01/31 09:58:47;;;;;;;19.23;13.77;;;;;;;8.54;50.13;99549.03;104817;1109;77124;-68
2021/01/31 10:00:54;;;;;;;18.13;13.63;;;;;;;8.46;50.61;99549.19;104805;1102;61899;-65
2021/01/31 10:03:06;;;;;;;19.07;13.53;;;;;;;8.38;49.72;99553.91;104809;1103;83952;-67
2021/01/31 10:05:12;;;;;;;19.27;13.03;;;;;;;8.08;50.12;99551.35;104835;1106;71311;-64